sensor_id;sensor_type;location;lat;lon;timestamp;temperature;humidity
45096;DHT22;30858;51.108;8.068;2023-06-14T00:00:31;13.50;99.90
45096;DHT22;30858;51.108;8.068;2023-06-14T00:02:57;13.30;99.90
45096;DHT22;30858;51.108;8.068;2023-06-14T00:05:23;13.10;99.90
45096;DHT22;30858;51.108;8.068;2023-06-14T00:07:49;13.00;99.90
45096;DHT22;30858;51.108;8.068;2023-06-14T00:10:19;12.90;99.90
45096;DHT22;30858;51.108;8.068;2023-06-14T00:12:44;12.80;99.90
45096;DHT22;30858;51.108;8.068;2023-06-14T00:15:10;12.80;99.90
45096;DHT22;30858;51.108;8.068;2023-06-14T00:17:36;12.80;99.90
45096;DHT22;30858;51.108;8.068;2023-06-14T00:20:03;12.80;99.90
45096;DHT22;30858;51.108;8.068;2023-06-14T00:22:32;12.90;99.90
45096;DHT22;30858;51.108;8.068;2023-06-14T00:24:58;12.90;99.90
45096;DHT22;30858;51.108;8.068;2023-06-14T00:27:23;12.80;99.90
45096;DHT22;30858;51.108;8.068;2023-06-14T00:29:50;12.70;99.90
45096;DHT22;30858;51.108;8.068;2023-06-14T00:32:15;12.70;99.90
45096;DHT22;30858;51.108;8.068;2023-06-14T00:34:41;12.60;99.90
45096;DHT22;30858;51.108;8.068;2023-06-14T00:37:06;12.50;99.90
45096;DHT22;30858;51.108;8.068;2023-06-14T00:39:32;12.60;99.90
45096;DHT22;30858;51.108;8.068;2023-06-14T00:41:57;12.50;99.90
45096;DHT22;30858;51.108;8.068;2023-06-14T00:44:24;12.50;99.90
45096;DHT22;30858;51.108;8.068;2023-06-14T00:46:50;12.50;99.90
45096;DHT22;30858;51.108;8.068;2023-06-14T00:49:18;12.40;99.90
45096;DHT22;30858;51.108;8.068;2023-06-14T00:51:45;12.50;99.90
45096;DHT22;30858;51.108;8.068;2023-06-14T00:54:10;12.40;99.90
45096;DHT22;30858;51.108;8.068;2023-06-14T00:56:37;12.40;99.90
45096;DHT22;30858;51.108;8.068;2023-06-14T00:59:03;12.30;99.90
45096;DHT22;30858;51.108;8.068;2023-06-14T01:01:30;12.40;99.90
45096;DHT22;30858;51.108;8.068;2023-06-14T01:03:58;12.40;99.90
45096;DHT22;30858;51.108;8.068;2023-06-14T01:06:49;12.40;99.90
45096;DHT22;30858;51.108;8.068;2023-06-14T01:12:35;12.20;99.90
45096;DHT22;30858;51.108;8.068;2023-06-14T01:15:04;12.30;99.90
45096;DHT22;30858;51.108;8.068;2023-06-14T01:17:31;12.20;99.90
45096;DHT22;30858;51.108;8.068;2023-06-14T01:19:59;12.20;99.90
45096;DHT22;30858;51.108;8.068;2023-06-14T01:22:26;12.30;99.90
45096;DHT22;30858;51.108;8.068;2023-06-14T01:24:53;12.20;99.90
45096;DHT22;30858;51.108;8.068;2023-06-14T01:27:22;12.20;99.90
45096;DHT22;30858;51.108;8.068;2023-06-14T01:29:50;12.10;99.90
45096;DHT22;30858;51.108;8.068;2023-06-14T01:32:17;12.00;99.90
45096;DHT22;30858;51.108;8.068;2023-06-14T01:34:44;12.00;99.90
45096;DHT22;30858;51.108;8.068;2023-06-14T01:37:11;11.90;99.90
45096;DHT22;30858;51.108;8.068;2023-06-14T01:39:37;11.90;99.90
45096;DHT22;30858;51.108;8.068;2023-06-14T01:42:04;11.90;99.90
45096;DHT22;30858;51.108;8.068;2023-06-14T01:44:31;11.80;99.90
45096;DHT22;30858;51.108;8.068;2023-06-14T01:46:57;11.80;99.90
45096;DHT22;30858;51.108;8.068;2023-06-14T01:49:22;11.80;99.90
45096;DHT22;30858;51.108;8.068;2023-06-14T01:51:48;11.90;99.90
45096;DHT22;30858;51.108;8.068;2023-06-14T01:54:14;11.90;99.90
45096;DHT22;30858;51.108;8.068;2023-06-14T01:56:39;11.80;99.90
45096;DHT22;30858;51.108;8.068;2023-06-14T01:59:05;11.80;99.90
45096;DHT22;30858;51.108;8.068;2023-06-14T02:01:30;11.80;99.90
45096;DHT22;30858;51.108;8.068;2023-06-14T02:03:56;11.70;99.90
45096;DHT22;30858;51.108;8.068;2023-06-14T02:06:22;11.70;99.90
45096;DHT22;30858;51.108;8.068;2023-06-14T02:08:47;11.70;99.90
45096;DHT22;30858;51.108;8.068;2023-06-14T02:11:13;11.70;99.90
45096;DHT22;30858;51.108;8.068;2023-06-14T02:13:38;11.70;99.90
45096;DHT22;30858;51.108;8.068;2023-06-14T02:16:04;11.60;99.90
45096;DHT22;30858;51.108;8.068;2023-06-14T02:18:29;11.50;99.90
45096;DHT22;30858;51.108;8.068;2023-06-14T02:20:55;11.60;99.90
45096;DHT22;30858;51.108;8.068;2023-06-14T02:23:21;11.60;99.90
45096;DHT22;30858;51.108;8.068;2023-06-14T02:25:46;11.60;99.90
45096;DHT22;30858;51.108;8.068;2023-06-14T02:28:12;11.60;99.90
45096;DHT22;30858;51.108;8.068;2023-06-14T02:30:37;11.60;99.90
45096;DHT22;30858;51.108;8.068;2023-06-14T02:33:03;11.50;99.90
45096;DHT22;30858;51.108;8.068;2023-06-14T02:35:30;11.40;99.90
45096;DHT22;30858;51.108;8.068;2023-06-14T02:37:56;11.30;99.90
45096;DHT22;30858;51.108;8.068;2023-06-14T02:40:21;11.20;99.90
45096;DHT22;30858;51.108;8.068;2023-06-14T02:42:50;11.20;99.90
45096;DHT22;30858;51.108;8.068;2023-06-14T02:45:15;11.10;99.90
45096;DHT22;30858;51.108;8.068;2023-06-14T02:47:41;11.10;99.90
45096;DHT22;30858;51.108;8.068;2023-06-14T02:50:07;11.00;99.90
45096;DHT22;30858;51.108;8.068;2023-06-14T02:52:33;11.00;99.90
45096;DHT22;30858;51.108;8.068;2023-06-14T02:54:59;10.90;99.90
45096;DHT22;30858;51.108;8.068;2023-06-14T02:57:25;10.90;99.90
45096;DHT22;30858;51.108;8.068;2023-06-14T02:59:50;10.90;99.90
45096;DHT22;30858;51.108;8.068;2023-06-14T03:02:17;10.90;99.90
45096;DHT22;30858;51.108;8.068;2023-06-14T03:04:42;10.80;99.90
45096;DHT22;30858;51.108;8.068;2023-06-14T03:07:09;10.80;99.90
45096;DHT22;30858;51.108;8.068;2023-06-14T03:09:36;10.80;99.90
45096;DHT22;30858;51.108;8.068;2023-06-14T03:12:05;10.80;99.90
45096;DHT22;30858;51.108;8.068;2023-06-14T03:14:35;10.80;99.90
45096;DHT22;30858;51.108;8.068;2023-06-14T03:17:01;10.70;99.90
45096;DHT22;30858;51.108;8.068;2023-06-14T03:19:27;10.70;99.90
45096;DHT22;30858;51.108;8.068;2023-06-14T03:21:53;10.70;99.90
45096;DHT22;30858;51.108;8.068;2023-06-14T03:24:22;10.60;99.90
45096;DHT22;30858;51.108;8.068;2023-06-14T03:26:48;10.60;99.90
45096;DHT22;30858;51.108;8.068;2023-06-14T03:29:13;10.60;99.90
45096;DHT22;30858;51.108;8.068;2023-06-14T03:31:56;10.70;99.90
45096;DHT22;30858;51.108;8.068;2023-06-14T03:34:23;10.60;99.90
45096;DHT22;30858;51.108;8.068;2023-06-14T03:36:48;10.60;99.90
45096;DHT22;30858;51.108;8.068;2023-06-14T03:39:14;10.60;99.90
45096;DHT22;30858;51.108;8.068;2023-06-14T03:41:40;10.60;99.90
45096;DHT22;30858;51.108;8.068;2023-06-14T03:44:05;10.60;99.90
45096;DHT22;30858;51.108;8.068;2023-06-14T03:46:31;10.60;99.90
45096;DHT22;30858;51.108;8.068;2023-06-14T03:48:56;10.50;99.90
45096;DHT22;30858;51.108;8.068;2023-06-14T03:51:22;10.50;99.90
45096;DHT22;30858;51.108;8.068;2023-06-14T03:53:48;10.60;99.90
45096;DHT22;30858;51.108;8.068;2023-06-14T03:56:13;10.60;99.90
45096;DHT22;30858;51.108;8.068;2023-06-14T03:58:39;10.60;99.90
45096;DHT22;30858;51.108;8.068;2023-06-14T04:01:04;10.60;99.90
45096;DHT22;30858;51.108;8.068;2023-06-14T04:03:32;10.60;99.90
45096;DHT22;30858;51.108;8.068;2023-06-14T04:05:58;10.50;99.90
45096;DHT22;30858;51.108;8.068;2023-06-14T04:08:25;10.50;99.90
45096;DHT22;30858;51.108;8.068;2023-06-14T04:10:50;10.50;99.90
45096;DHT22;30858;51.108;8.068;2023-06-14T04:13:16;10.50;99.90
45096;DHT22;30858;51.108;8.068;2023-06-14T04:15:42;10.50;99.90
45096;DHT22;30858;51.108;8.068;2023-06-14T04:18:09;10.60;99.90
45096;DHT22;30858;51.108;8.068;2023-06-14T04:20:34;10.70;99.90
45096;DHT22;30858;51.108;8.068;2023-06-14T04:23:14;10.90;99.90
45096;DHT22;30858;51.108;8.068;2023-06-14T04:25:40;10.90;99.90
45096;DHT22;30858;51.108;8.068;2023-06-14T04:28:10;11.00;99.90
45096;DHT22;30858;51.108;8.068;2023-06-14T04:30:36;11.10;99.90
45096;DHT22;30858;51.108;8.068;2023-06-14T04:33:04;11.20;99.90
45096;DHT22;30858;51.108;8.068;2023-06-14T04:35:31;11.20;99.90
45096;DHT22;30858;51.108;8.068;2023-06-14T04:37:58;11.30;99.90
45096;DHT22;30858;51.108;8.068;2023-06-14T04:40:24;11.30;99.90
45096;DHT22;30858;51.108;8.068;2023-06-14T04:42:50;11.30;99.90
45096;DHT22;30858;51.108;8.068;2023-06-14T04:45:16;11.40;99.90
45096;DHT22;30858;51.108;8.068;2023-06-14T04:47:42;11.50;99.90
45096;DHT22;30858;51.108;8.068;2023-06-14T04:50:09;11.70;99.90
45096;DHT22;30858;51.108;8.068;2023-06-14T04:52:38;11.80;99.90
45096;DHT22;30858;51.108;8.068;2023-06-14T04:55:04;11.90;99.90
45096;DHT22;30858;51.108;8.068;2023-06-14T04:57:31;11.90;99.90
45096;DHT22;30858;51.108;8.068;2023-06-14T04:59:56;11.90;99.90
45096;DHT22;30858;51.108;8.068;2023-06-14T05:02:23;11.90;99.90
45096;DHT22;30858;51.108;8.068;2023-06-14T05:04:49;12.10;99.90
45096;DHT22;30858;51.108;8.068;2023-06-14T05:07:15;12.40;99.90
45096;DHT22;30858;51.108;8.068;2023-06-14T05:09:41;12.30;99.90
45096;DHT22;30858;51.108;8.068;2023-06-14T05:12:06;12.40;99.90
45096;DHT22;30858;51.108;8.068;2023-06-14T05:14:35;12.50;99.90
45096;DHT22;30858;51.108;8.068;2023-06-14T05:17:01;12.70;99.90
45096;DHT22;30858;51.108;8.068;2023-06-14T05:19:28;12.90;99.90
45096;DHT22;30858;51.108;8.068;2023-06-14T05:21:53;13.20;99.90
45096;DHT22;30858;51.108;8.068;2023-06-14T05:24:19;13.40;99.90
45096;DHT22;30858;51.108;8.068;2023-06-14T05:26:45;13.60;99.90
45096;DHT22;30858;51.108;8.068;2023-06-14T05:29:11;13.80;99.90
45096;DHT22;30858;51.108;8.068;2023-06-14T05:31:37;14.00;99.90
45096;DHT22;30858;51.108;8.068;2023-06-14T05:34:03;14.10;99.90
45096;DHT22;30858;51.108;8.068;2023-06-14T05:36:28;14.30;99.90
45096;DHT22;30858;51.108;8.068;2023-06-14T05:38:54;14.40;99.90
45096;DHT22;30858;51.108;8.068;2023-06-14T05:41:28;14.40;99.90
45096;DHT22;30858;51.108;8.068;2023-06-14T05:43:55;14.60;99.90
45096;DHT22;30858;51.108;8.068;2023-06-14T05:46:22;14.80;99.90
45096;DHT22;30858;51.108;8.068;2023-06-14T05:48:50;15.10;99.90
45096;DHT22;30858;51.108;8.068;2023-06-14T05:51:15;15.30;99.90
45096;DHT22;30858;51.108;8.068;2023-06-14T05:53:44;15.70;99.90
45096;DHT22;30858;51.108;8.068;2023-06-14T05:56:10;15.90;99.90
45096;DHT22;30858;51.108;8.068;2023-06-14T05:58:36;16.10;99.90
45096;DHT22;30858;51.108;8.068;2023-06-14T06:01:01;16.30;99.90
45096;DHT22;30858;51.108;8.068;2023-06-14T06:03:27;16.60;99.90
45096;DHT22;30858;51.108;8.068;2023-06-14T06:05:54;16.60;99.90
45096;DHT22;30858;51.108;8.068;2023-06-14T06:08:20;16.90;99.90
45096;DHT22;30858;51.108;8.068;2023-06-14T06:10:46;17.10;99.90
45096;DHT22;30858;51.108;8.068;2023-06-14T06:13:11;17.40;99.90
45096;DHT22;30858;51.108;8.068;2023-06-14T06:15:37;17.50;99.90
45096;DHT22;30858;51.108;8.068;2023-06-14T06:18:02;17.70;99.90
45096;DHT22;30858;51.108;8.068;2023-06-14T06:20:29;17.80;99.90
45096;DHT22;30858;51.108;8.068;2023-06-14T06:22:59;17.80;99.90
45096;DHT22;30858;51.108;8.068;2023-06-14T06:25:26;18.10;99.90
45096;DHT22;30858;51.108;8.068;2023-06-14T06:27:57;18.30;99.90
45096;DHT22;30858;51.108;8.068;2023-06-14T06:30:22;18.30;99.90
45096;DHT22;30858;51.108;8.068;2023-06-14T06:32:48;18.40;99.90
45096;DHT22;30858;51.108;8.068;2023-06-14T06:35:14;18.40;99.90
45096;DHT22;30858;51.108;8.068;2023-06-14T06:37:41;18.40;99.90
45096;DHT22;30858;51.108;8.068;2023-06-14T06:40:07;18.60;99.90
45096;DHT22;30858;51.108;8.068;2023-06-14T06:42:34;18.70;99.90
45096;DHT22;30858;51.108;8.068;2023-06-14T06:44:59;18.70;99.90
45096;DHT22;30858;51.108;8.068;2023-06-14T06:47:25;18.70;99.90
45096;DHT22;30858;51.108;8.068;2023-06-14T06:49:51;18.90;99.90
45096;DHT22;30858;51.108;8.068;2023-06-14T06:52:16;18.80;99.90
45096;DHT22;30858;51.108;8.068;2023-06-14T06:54:42;19.00;99.90
45096;DHT22;30858;51.108;8.068;2023-06-14T06:57:08;19.20;99.90
45096;DHT22;30858;51.108;8.068;2023-06-14T06:59:34;19.20;99.90
45096;DHT22;30858;51.108;8.068;2023-06-14T07:01:59;19.10;99.90
45096;DHT22;30858;51.108;8.068;2023-06-14T07:04:25;19.30;99.90
45096;DHT22;30858;51.108;8.068;2023-06-14T07:06:51;19.50;99.90
45096;DHT22;30858;51.108;8.068;2023-06-14T07:09:16;19.80;99.90
45096;DHT22;30858;51.108;8.068;2023-06-14T07:11:46;19.50;99.90
45096;DHT22;30858;51.108;8.068;2023-06-14T07:14:11;19.80;99.90
45096;DHT22;30858;51.108;8.068;2023-06-14T07:16:37;19.70;99.90
45096;DHT22;30858;51.108;8.068;2023-06-14T07:19:03;19.90;99.90
45096;DHT22;30858;51.108;8.068;2023-06-14T07:21:29;19.90;99.90
45096;DHT22;30858;51.108;8.068;2023-06-14T07:23:55;20.10;99.90
45096;DHT22;30858;51.108;8.068;2023-06-14T07:26:21;19.90;99.90
45096;DHT22;30858;51.108;8.068;2023-06-14T07:28:47;20.30;99.90
45096;DHT22;30858;51.108;8.068;2023-06-14T07:31:14;20.50;99.90
45096;DHT22;30858;51.108;8.068;2023-06-14T07:33:41;20.90;99.90
45096;DHT22;30858;51.108;8.068;2023-06-14T07:36:07;21.00;99.90
45096;DHT22;30858;51.108;8.068;2023-06-14T07:38:33;20.80;99.90
45096;DHT22;30858;51.108;8.068;2023-06-14T07:40:58;20.50;99.90
45096;DHT22;30858;51.108;8.068;2023-06-14T07:43:24;20.30;99.90
45096;DHT22;30858;51.108;8.068;2023-06-14T07:45:50;20.40;99.90
45096;DHT22;30858;51.108;8.068;2023-06-14T07:48:15;20.80;99.90
45096;DHT22;30858;51.108;8.068;2023-06-14T07:50:41;20.80;99.90
45096;DHT22;30858;51.108;8.068;2023-06-14T07:53:07;20.60;99.90
45096;DHT22;30858;51.108;8.068;2023-06-14T07:55:32;20.70;99.90
45096;DHT22;30858;51.108;8.068;2023-06-14T07:58:02;20.70;99.90
45096;DHT22;30858;51.108;8.068;2023-06-14T08:00:28;21.10;99.90
45096;DHT22;30858;51.108;8.068;2023-06-14T08:02:53;20.40;99.90
45096;DHT22;30858;51.108;8.068;2023-06-14T08:05:24;20.50;99.90
45096;DHT22;30858;51.108;8.068;2023-06-14T08:07:49;20.20;99.90
45096;DHT22;30858;51.108;8.068;2023-06-14T08:10:15;20.20;99.90
45096;DHT22;30858;51.108;8.068;2023-06-14T08:12:40;20.40;99.90
45096;DHT22;30858;51.108;8.068;2023-06-14T08:15:06;20.70;99.90
45096;DHT22;30858;51.108;8.068;2023-06-14T08:17:32;21.00;99.90
45096;DHT22;30858;51.108;8.068;2023-06-14T08:19:58;21.10;99.90
45096;DHT22;30858;51.108;8.068;2023-06-14T08:22:24;21.50;99.90
45096;DHT22;30858;51.108;8.068;2023-06-14T08:24:50;21.40;99.90
45096;DHT22;30858;51.108;8.068;2023-06-14T08:27:16;21.20;99.90
45096;DHT22;30858;51.108;8.068;2023-06-14T08:29:41;20.70;99.90
45096;DHT22;30858;51.108;8.068;2023-06-14T08:32:07;20.70;99.90
45096;DHT22;30858;51.108;8.068;2023-06-14T08:34:33;20.70;99.90
45096;DHT22;30858;51.108;8.068;2023-06-14T08:36:58;20.90;99.90
45096;DHT22;30858;51.108;8.068;2023-06-14T08:39:24;21.00;99.90
45096;DHT22;30858;51.108;8.068;2023-06-14T08:41:50;21.50;99.90
45096;DHT22;30858;51.108;8.068;2023-06-14T08:44:16;20.90;99.90
45096;DHT22;30858;51.108;8.068;2023-06-14T08:46:42;21.30;99.90
45096;DHT22;30858;51.108;8.068;2023-06-14T08:49:11;21.60;99.90
45096;DHT22;30858;51.108;8.068;2023-06-14T08:51:37;21.90;99.90
45096;DHT22;30858;51.108;8.068;2023-06-14T08:54:03;21.30;99.90
45096;DHT22;30858;51.108;8.068;2023-06-14T08:56:30;21.60;99.90
45096;DHT22;30858;51.108;8.068;2023-06-14T08:58:57;22.00;99.90
45096;DHT22;30858;51.108;8.068;2023-06-14T09:01:26;21.90;99.90
45096;DHT22;30858;51.108;8.068;2023-06-14T09:03:52;22.20;99.90
45096;DHT22;30858;51.108;8.068;2023-06-14T09:06:21;22.70;99.90
45096;DHT22;30858;51.108;8.068;2023-06-14T09:08:48;22.60;99.90
45096;DHT22;30858;51.108;8.068;2023-06-14T09:11:15;22.20;99.90
45096;DHT22;30858;51.108;8.068;2023-06-14T09:13:42;22.10;99.90
45096;DHT22;30858;51.108;8.068;2023-06-14T09:16:08;22.60;99.90
45096;DHT22;30858;51.108;8.068;2023-06-14T09:18:38;22.40;99.90
45096;DHT22;30858;51.108;8.068;2023-06-14T09:21:07;22.50;99.90
45096;DHT22;30858;51.108;8.068;2023-06-14T09:23:43;22.70;99.90
45096;DHT22;30858;51.108;8.068;2023-06-14T09:26:10;23.10;99.90
45096;DHT22;30858;51.108;8.068;2023-06-14T09:28:44;22.40;99.90
45096;DHT22;30858;51.108;8.068;2023-06-14T09:31:16;22.60;99.90
45096;DHT22;30858;51.108;8.068;2023-06-14T09:33:47;22.60;99.90
45096;DHT22;30858;51.108;8.068;2023-06-14T09:36:23;22.50;99.90
45096;DHT22;30858;51.108;8.068;2023-06-14T09:41:18;22.90;99.90
45096;DHT22;30858;51.108;8.068;2023-06-14T09:43:45;22.70;99.90
45096;DHT22;30858;51.108;8.068;2023-06-14T09:46:12;22.80;99.90
45096;DHT22;30858;51.108;8.068;2023-06-14T09:48:39;23.60;99.30
45096;DHT22;30858;51.108;8.068;2023-06-14T09:51:10;23.00;99.50
45096;DHT22;30858;51.108;8.068;2023-06-14T09:53:41;22.90;99.90
45096;DHT22;30858;51.108;8.068;2023-06-14T09:56:07;22.50;99.50
45096;DHT22;30858;51.108;8.068;2023-06-14T09:58:35;22.50;99.30
45096;DHT22;30858;51.108;8.068;2023-06-14T10:01:02;22.90;99.90
45096;DHT22;30858;51.108;8.068;2023-06-14T10:03:29;23.50;99.30
45096;DHT22;30858;51.108;8.068;2023-06-14T10:05:55;22.90;98.50
45096;DHT22;30858;51.108;8.068;2023-06-14T10:08:27;23.40;99.70
45096;DHT22;30858;51.108;8.068;2023-06-14T10:10:55;23.10;98.60
45096;DHT22;30858;51.108;8.068;2023-06-14T10:13:22;23.50;99.10
45096;DHT22;30858;51.108;8.068;2023-06-14T10:16:15;23.30;98.10
45096;DHT22;30858;51.108;8.068;2023-06-14T10:18:49;23.70;99.40
45096;DHT22;30858;51.108;8.068;2023-06-14T10:23:50;23.90;99.00
45096;DHT22;30858;51.108;8.068;2023-06-14T10:26:23;23.90;97.90
45096;DHT22;30858;51.108;8.068;2023-06-14T10:28:58;23.90;98.90
45096;DHT22;30858;51.108;8.068;2023-06-14T10:31:41;24.40;97.50
45096;DHT22;30858;51.108;8.068;2023-06-14T10:34:07;24.50;98.10
45096;DHT22;30858;51.108;8.068;2023-06-14T10:36:33;25.00;98.50
45096;DHT22;30858;51.108;8.068;2023-06-14T10:39:15;24.30;96.30
45096;DHT22;30858;51.108;8.068;2023-06-14T10:41:41;23.90;97.20
45096;DHT22;30858;51.108;8.068;2023-06-14T10:46:39;23.90;95.90
45096;DHT22;30858;51.108;8.068;2023-06-14T10:49:05;24.10;96.20
45096;DHT22;30858;51.108;8.068;2023-06-14T10:51:39;24.80;97.10
45096;DHT22;30858;51.108;8.068;2023-06-14T10:54:15;24.80;94.90
45096;DHT22;30858;51.108;8.068;2023-06-14T10:56:48;24.10;94.40
45096;DHT22;30858;51.108;8.068;2023-06-14T10:59:16;24.60;94.70
45096;DHT22;30858;51.108;8.068;2023-06-14T11:04:20;24.30;94.60
45096;DHT22;30858;51.108;8.068;2023-06-14T11:06:50;23.70;95.80
45096;DHT22;30858;51.108;8.068;2023-06-14T11:09:42;24.30;95.80
45096;DHT22;30858;51.108;8.068;2023-06-14T11:12:13;23.70;94.70
45096;DHT22;30858;51.108;8.068;2023-06-14T11:14:40;23.30;96.20
45096;DHT22;30858;51.108;8.068;2023-06-14T11:17:05;23.80;95.90
45096;DHT22;30858;51.108;8.068;2023-06-14T11:19:31;24.20;94.90
45096;DHT22;30858;51.108;8.068;2023-06-14T11:21:57;24.40;94.90
45096;DHT22;30858;51.108;8.068;2023-06-14T11:24:23;23.40;94.70
45096;DHT22;30858;51.108;8.068;2023-06-14T11:26:48;24.10;96.60
45096;DHT22;30858;51.108;8.068;2023-06-14T11:29:16;24.40;94.20
45096;DHT22;30858;51.108;8.068;2023-06-14T11:31:45;24.90;94.30
45096;DHT22;30858;51.108;8.068;2023-06-14T11:34:12;24.80;93.40
45096;DHT22;30858;51.108;8.068;2023-06-14T11:36:38;24.30;93.30
45096;DHT22;30858;51.108;8.068;2023-06-14T11:39:05;23.90;93.60
45096;DHT22;30858;51.108;8.068;2023-06-14T11:41:44;23.40;94.70
45096;DHT22;30858;51.108;8.068;2023-06-14T11:44:10;23.50;93.50
45096;DHT22;30858;51.108;8.068;2023-06-14T11:46:37;23.50;95.30
45096;DHT22;30858;51.108;8.068;2023-06-14T11:49:03;24.00;94.10
45096;DHT22;30858;51.108;8.068;2023-06-14T11:51:36;23.60;94.50
45096;DHT22;30858;51.108;8.068;2023-06-14T11:54:03;23.40;95.50
45096;DHT22;30858;51.108;8.068;2023-06-14T11:56:30;23.50;95.60
45096;DHT22;30858;51.108;8.068;2023-06-14T11:58:57;23.80;95.80
45096;DHT22;30858;51.108;8.068;2023-06-14T12:01:23;23.30;94.60
45096;DHT22;30858;51.108;8.068;2023-06-14T12:03:50;24.10;93.50
45096;DHT22;30858;51.108;8.068;2023-06-14T12:06:15;24.00;94.60
45096;DHT22;30858;51.108;8.068;2023-06-14T12:08:43;24.10;93.40
45096;DHT22;30858;51.108;8.068;2023-06-14T12:11:14;23.60;93.60
45096;DHT22;30858;51.108;8.068;2023-06-14T12:13:41;24.00;94.50
45096;DHT22;30858;51.108;8.068;2023-06-14T12:16:08;24.70;93.10
45096;DHT22;30858;51.108;8.068;2023-06-14T12:18:35;25.00;93.70
45096;DHT22;30858;51.108;8.068;2023-06-14T12:21:02;23.90;93.80
45096;DHT22;30858;51.108;8.068;2023-06-14T12:23:39;22.80;94.70
45096;DHT22;30858;51.108;8.068;2023-06-14T12:26:04;23.10;95.60
45096;DHT22;30858;51.108;8.068;2023-06-14T12:28:31;22.80;94.70
45096;DHT22;30858;51.108;8.068;2023-06-14T12:30:57;23.30;95.00
45096;DHT22;30858;51.108;8.068;2023-06-14T12:33:24;23.80;94.60
45096;DHT22;30858;51.108;8.068;2023-06-14T12:35:50;24.00;93.90
45096;DHT22;30858;51.108;8.068;2023-06-14T12:38:16;23.90;93.90
45096;DHT22;30858;51.108;8.068;2023-06-14T12:40:42;24.10;94.50
45096;DHT22;30858;51.108;8.068;2023-06-14T12:43:08;23.70;93.30
45096;DHT22;30858;51.108;8.068;2023-06-14T12:45:33;23.50;94.20
45096;DHT22;30858;51.108;8.068;2023-06-14T12:47:59;23.80;94.50
45096;DHT22;30858;51.108;8.068;2023-06-14T12:50:24;24.20;93.50
45096;DHT22;30858;51.108;8.068;2023-06-14T12:52:50;24.10;94.60
45096;DHT22;30858;51.108;8.068;2023-06-14T12:55:16;24.40;94.60
45096;DHT22;30858;51.108;8.068;2023-06-14T12:57:41;23.90;93.00
45096;DHT22;30858;51.108;8.068;2023-06-14T13:00:07;23.30;93.20
45096;DHT22;30858;51.108;8.068;2023-06-14T13:02:33;23.40;93.30
45096;DHT22;30858;51.108;8.068;2023-06-14T13:04:59;24.00;93.40
45096;DHT22;30858;51.108;8.068;2023-06-14T13:07:25;24.70;93.10
45096;DHT22;30858;51.108;8.068;2023-06-14T13:09:51;24.00;92.40
45096;DHT22;30858;51.108;8.068;2023-06-14T13:12:16;23.60;92.90
45096;DHT22;30858;51.108;8.068;2023-06-14T13:14:42;23.40;92.80
45096;DHT22;30858;51.108;8.068;2023-06-14T13:17:09;23.60;93.70
45096;DHT22;30858;51.108;8.068;2023-06-14T13:19:35;23.60;92.70
45096;DHT22;30858;51.108;8.068;2023-06-14T13:22:01;23.30;92.50
45096;DHT22;30858;51.108;8.068;2023-06-14T13:24:26;23.80;93.50
45096;DHT22;30858;51.108;8.068;2023-06-14T13:26:52;24.20;93.50
45096;DHT22;30858;51.108;8.068;2023-06-14T13:29:17;24.70;92.80
45096;DHT22;30858;51.108;8.068;2023-06-14T13:31:43;24.90;91.90
45096;DHT22;30858;51.108;8.068;2023-06-14T13:34:08;24.20;91.70
45096;DHT22;30858;51.108;8.068;2023-06-14T13:36:34;23.40;92.10
45096;DHT22;30858;51.108;8.068;2023-06-14T13:39:00;23.70;93.10
45096;DHT22;30858;51.108;8.068;2023-06-14T13:41:28;24.20;93.60
45096;DHT22;30858;51.108;8.068;2023-06-14T13:43:59;24.60;92.60
45096;DHT22;30858;51.108;8.068;2023-06-14T13:46:25;24.70;91.00
45096;DHT22;30858;51.108;8.068;2023-06-14T13:48:51;24.40;91.70
45096;DHT22;30858;51.108;8.068;2023-06-14T13:51:17;23.70;92.10
45096;DHT22;30858;51.108;8.068;2023-06-14T13:53:47;23.70;92.30
45096;DHT22;30858;51.108;8.068;2023-06-14T13:56:13;23.50;92.40
45096;DHT22;30858;51.108;8.068;2023-06-14T13:58:38;23.30;92.40
45096;DHT22;30858;51.108;8.068;2023-06-14T14:01:04;22.90;93.00
45096;DHT22;30858;51.108;8.068;2023-06-14T14:03:29;23.50;92.40
45096;DHT22;30858;51.108;8.068;2023-06-14T14:05:56;23.40;91.80
45096;DHT22;30858;51.108;8.068;2023-06-14T14:08:21;23.90;91.80
45096;DHT22;30858;51.108;8.068;2023-06-14T14:10:47;23.70;91.20
45096;DHT22;30858;51.108;8.068;2023-06-14T14:13:12;24.40;90.60
45096;DHT22;30858;51.108;8.068;2023-06-14T14:15:38;24.80;91.10
45096;DHT22;30858;51.108;8.068;2023-06-14T14:18:03;24.60;91.00
45096;DHT22;30858;51.108;8.068;2023-06-14T14:20:31;24.00;91.60
45096;DHT22;30858;51.108;8.068;2023-06-14T14:22:56;24.70;91.40
45096;DHT22;30858;51.108;8.068;2023-06-14T14:25:22;24.90;90.60
45096;DHT22;30858;51.108;8.068;2023-06-14T14:27:47;24.80;90.40
45096;DHT22;30858;51.108;8.068;2023-06-14T14:30:13;25.20;91.60
45096;DHT22;30858;51.108;8.068;2023-06-14T14:32:42;25.10;89.20
45096;DHT22;30858;51.108;8.068;2023-06-14T14:35:09;24.00;89.50
45096;DHT22;30858;51.108;8.068;2023-06-14T14:37:35;23.80;89.40
45096;DHT22;30858;51.108;8.068;2023-06-14T14:40:00;23.80;90.10
45096;DHT22;30858;51.108;8.068;2023-06-14T14:42:26;23.40;89.00
45096;DHT22;30858;51.108;8.068;2023-06-14T14:44:52;24.10;89.80
45096;DHT22;30858;51.108;8.068;2023-06-14T14:47:17;24.40;88.70
45096;DHT22;30858;51.108;8.068;2023-06-14T14:49:43;24.90;89.70
45096;DHT22;30858;51.108;8.068;2023-06-14T14:52:08;25.40;88.90
45096;DHT22;30858;51.108;8.068;2023-06-14T14:54:34;25.40;88.20
45096;DHT22;30858;51.108;8.068;2023-06-14T14:57:01;24.90;88.10
45096;DHT22;30858;51.108;8.068;2023-06-14T14:59:26;24.50;88.70
45096;DHT22;30858;51.108;8.068;2023-06-14T15:01:52;24.50;90.00
45096;DHT22;30858;51.108;8.068;2023-06-14T15:04:18;24.70;91.10
45096;DHT22;30858;51.108;8.068;2023-06-14T15:06:43;24.30;90.10
45096;DHT22;30858;51.108;8.068;2023-06-14T15:09:09;24.10;89.50
45096;DHT22;30858;51.108;8.068;2023-06-14T15:11:34;24.50;89.80
45096;DHT22;30858;51.108;8.068;2023-06-14T15:14:00;24.60;87.90
45096;DHT22;30858;51.108;8.068;2023-06-14T15:16:25;24.10;86.70
45096;DHT22;30858;51.108;8.068;2023-06-14T15:18:51;24.00;89.70
45096;DHT22;30858;51.108;8.068;2023-06-14T15:21:16;24.20;86.60
45096;DHT22;30858;51.108;8.068;2023-06-14T15:23:45;24.20;84.90
45096;DHT22;30858;51.108;8.068;2023-06-14T15:26:11;24.50;83.50
45096;DHT22;30858;51.108;8.068;2023-06-14T15:28:36;24.60;86.90
45096;DHT22;30858;51.108;8.068;2023-06-14T15:31:02;24.50;85.00
45096;DHT22;30858;51.108;8.068;2023-06-14T15:33:27;24.20;85.30
45096;DHT22;30858;51.108;8.068;2023-06-14T15:35:53;24.20;87.80
45096;DHT22;30858;51.108;8.068;2023-06-14T15:38:20;24.80;87.00
45096;DHT22;30858;51.108;8.068;2023-06-14T15:40:46;24.60;87.50